Time,TemperatureF,DewpointF,PressureIn,WindDirection,WindDirectionDegrees,WindSpeedMPH,WindSpeedGustMPH,Humidity,HourlyPrecipIn,Conditions,Clouds,dailyrainin,SoftwareType,DateUTC
2013-06-09 00:02:00,58.0,33.0,-100.00,ENE,66,12.0,14.0,37,-99.99,,,-99.99,,2013-06-09 06:02:00,
2013-06-09 00:11:00,57.0,33.0,-100.00,ENE,64,14.0,16.0,40,-99.99,,,-99.99,,2013-06-09 06:11:00,
2013-06-09 00:22:00,56.0,33.0,-100.00,ENE,69,16.0,17.0,40,-99.99,,,-99.99,,2013-06-09 06:22:00,
2013-06-09 00:32:00,57.0,33.0,-100.00,ENE,70,12.0,16.0,39,-99.99,,,-99.99,,2013-06-09 06:32:00,
2013-06-09 00:42:00,57.0,32.0,-100.00,East,93,8.0,13.0,38,-99.99,,,-99.99,,2013-06-09 06:42:00,
2013-06-09 00:52:00,57.0,32.0,-100.00,East,91,13.0,13.0,39,-99.99,,,-99.99,,2013-06-09 06:52:00,
2013-06-09 01:02:00,57.0,32.0,-100.00,East,86,11.0,14.0,38,-99.99,,,-99.99,,2013-06-09 07:02:00,
2013-06-09 01:12:00,58.0,32.0,-100.00,East,83,11.0,11.0,36,-99.99,,,-99.99,,2013-06-09 07:12:00,
2013-06-09 01:21:00,58.0,31.0,-100.00,East,83,10.0,11.0,35,-99.99,,,-99.99,,2013-06-09 07:21:00,
2013-06-09 01:32:00,56.0,33.0,-100.00,East,88,14.0,14.0,41,-99.99,,,-99.99,,2013-06-09 07:32:00,
2013-06-09 01:42:00,56.0,32.0,-100.00,East,86,13.0,14.0,39,-99.99,,,-99.99,,2013-06-09 07:42:00,
2013-06-09 01:52:00,58.0,31.0,-100.00,East,81,7.0,12.0,35,-99.99,,,-99.99,,2013-06-09 07:52:00,
2013-06-09 02:02:00,58.0,31.0,-100.00,East,82,11.0,12.0,36,-99.99,,,-99.99,,2013-06-09 08:02:00,
2013-06-09 02:12:00,55.0,32.0,-100.00,ENE,78,14.0,15.0,41,-99.99,,,-99.99,,2013-06-09 08:12:00,
2013-06-09 02:22:00,56.0,31.0,-100.00,ENE,68,9.0,14.0,38,-99.99,,,-99.99,,2013-06-09 08:22:00,
2013-06-09 02:32:00,57.0,31.0,-100.00,ENE,70,11.0,13.0,37,-99.99,,,-99.99,,2013-06-09 08:32:00,
2013-06-09 02:42:00,55.0,30.0,-100.00,ENE,74,12.0,14.0,38,-99.99,,,-99.99,,2013-06-09 08:42:00,
2013-06-09 02:52:00,55.0,30.0,-100.00,ENE,67,15.0,15.0,38,-99.99,,,-99.99,,2013-06-09 08:52:00,
2013-06-09 03:02:00,54.0,30.0,-100.00,ENE,73,15.0,15.0,38,-99.99,,,-99.99,,2013-06-09 09:02:00,
2013-06-09 03:12:00,52.0,31.0,-100.00,NE,34,3.0,13.0,43,-99.99,,,-99.99,,2013-06-09 09:12:00,
2013-06-09 03:22:00,54.0,30.0,-100.00,ENE,63,11.0,13.0,40,-99.99,,,-99.99,,2013-06-09 09:22:00,
2013-06-09 03:33:00,52.0,31.0,-100.00,ENE,72,11.0,15.0,43,-99.99,,,-99.99,,2013-06-09 09:33:00,
2013-06-09 03:43:00,51.0,31.0,-100.00,ENE,59,11.0,14.0,44,-99.99,,,-99.99,,2013-06-09 09:43:00,
2013-06-09 03:52:00,52.0,29.0,-100.00,ENE,60,14.0,15.0,41,-99.99,,,-99.99,,2013-06-09 09:52:00,
2013-06-09 04:03:00,52.0,29.0,-100.00,ENE,71,10.0,15.0,40,-99.99,,,-99.99,,2013-06-09 10:03:00,
2013-06-09 04:12:00,52.0,29.0,-100.00,ENE,59,13.0,15.0,41,-99.99,,,-99.99,,2013-06-09 10:12:00,
2013-06-09 04:22:00,52.0,29.0,-100.00,ENE,64,15.0,18.0,41,-99.99,,,-99.99,,2013-06-09 10:22:00,
2013-06-09 04:32:00,52.0,29.0,-100.00,ENE,64,15.0,18.0,41,-99.99,,,-99.99,,2013-06-09 10:32:00,
2013-06-09 04:42:00,54.0,28.0,-100.00,East,86,13.0,17.0,36,-99.99,,,-99.99,,2013-06-09 10:42:00,
2013-06-09 04:52:00,54.0,27.0,-100.00,East,81,10.0,13.0,35,-99.99,,,-99.99,,2013-06-09 10:52:00,
2013-06-09 05:02:00,56.0,27.0,-100.00,East,79,10.0,13.0,32,-99.99,,,-99.99,,2013-06-09 11:02:00,
2013-06-09 05:12:00,55.0,27.0,-100.00,ENE,75,11.0,13.0,34,-99.99,,,-99.99,,2013-06-09 11:12:00,
2013-06-09 05:22:00,54.0,28.0,-100.00,East,79,9.0,11.0,36,-99.99,,,-99.99,,2013-06-09 11:22:00,
2013-06-09 05:32:00,54.0,27.0,-100.00,East,84,11.0,12.0,36,-99.99,,,-99.99,,2013-06-09 11:32:00,
2013-06-09 05:41:00,54.0,28.0,-100.00,East,97,10.0,11.0,36,-99.99,,,-99.99,,2013-06-09 11:41:00,
2013-06-09 05:52:00,52.0,28.0,-100.00,East,92,10.0,10.0,39,-99.99,,,-99.99,,2013-06-09 11:52:00,
2013-06-09 06:02:00,52.0,28.0,-100.00,East,81,8.0,9.0,38,-99.99,,,-99.99,,2013-06-09 12:02:00,
2013-06-09 06:12:00,52.0,27.0,-100.00,ENE,78,8.0,10.0,37,-99.99,,,-99.99,,2013-06-09 12:12:00,
2013-06-09 06:22:00,51.0,28.0,-100.00,ENE,68,12.0,13.0,39,-99.99,,,-99.99,,2013-06-09 12:22:00,
2013-06-09 06:32:00,51.0,28.0,-100.00,ENE,73,11.0,15.0,41,-99.99,,,-99.99,,2013-06-09 12:32:00,
2013-06-09 06:42:00,51.0,28.0,-100.00,ENE,73,11.0,12.0,40,-99.99,,,-99.99,,2013-06-09 12:42:00,
2013-06-09 06:52:00,52.0,28.0,-100.00,ENE,76,12.0,13.0,38,-99.99,,,-99.99,,2013-06-09 12:52:00,
2013-06-09 07:02:00,52.0,27.0,-100.00,ENE,63,9.0,12.0,37,-99.99,,,-99.99,,2013-06-09 13:02:00,
2013-06-09 07:12:00,55.0,28.0,-100.00,NE,39,3.0,9.0,35,-99.99,,,-99.99,,2013-06-09 13:12:00,
2013-06-09 07:22:00,54.0,29.0,-100.00,NNE,27,1.0,7.0,37,-99.99,,,-99.99,,2013-06-09 13:22:00,
2013-06-09 07:32:00,55.0,29.0,-100.00,NNE,29,3.0,4.0,36,-99.99,,,-99.99,,2013-06-09 13:32:00,
2013-06-09 07:42:00,56.0,28.0,-100.00,NNE,21,3.0,4.0,33,-99.99,,,-99.99,,2013-06-09 13:42:00,
2013-06-09 07:52:00,57.0,28.0,-100.00,East,85,6.0,7.0,32,-99.99,,,-99.99,,2013-06-09 13:52:00,
2013-06-09 08:02:00,59.0,29.0,-100.00,ESE,115,1.0,7.0,32,-99.99,,,-99.99,,2013-06-09 14:02:00,
2013-06-09 08:12:00,59.0,32.0,-100.00,East,81,6.0,7.0,36,-99.99,,,-99.99,,2013-06-09 14:12:00,
2013-06-09 08:22:00,61.0,32.0,-100.00,SW,229,3.0,5.0,33,-99.99,,,-99.99,,2013-06-09 14:22:00,
2013-06-09 08:32:00,58.0,34.0,-100.00,SW,224,4.0,5.0,40,-99.99,,,-99.99,,2013-06-09 14:32:00,
2013-06-09 08:42:00,60.0,34.0,-100.00,SSW,201,1.0,4.0,38,-99.99,,,-99.99,,2013-06-09 14:42:00,
2013-06-09 08:52:00,62.0,34.0,-100.00,SSW,195,2.0,2.0,34,-99.99,,,-99.99,,2013-06-09 14:52:00,
2013-06-09 09:02:00,62.0,34.0,-100.00,SSW,195,2.0,2.0,34,-99.99,,,-99.99,,2013-06-09 15:02:00,
2013-06-09 09:11:00,62.0,35.0,-100.00,SSW,198,4.0,4.0,36,-99.99,,,-99.99,,2013-06-09 15:11:00,
2013-06-09 09:22:00,63.0,34.0,-100.00,SSW,197,4.0,4.0,33,-99.99,,,-99.99,,2013-06-09 15:22:00,
2013-06-09 09:32:00,64.0,35.0,-100.00,SSW,198,3.0,4.0,33,-99.99,,,-99.99,,2013-06-09 15:32:00,
2013-06-09 09:43:00,65.0,35.0,-100.00,SSW,196,4.0,5.0,32,-99.99,,,-99.99,,2013-06-09 15:43:00,
2013-06-09 09:53:00,63.0,35.0,-100.00,SSW,204,5.0,6.0,35,-99.99,,,-99.99,,2013-06-09 15:53:00,
2013-06-09 10:03:00,62.0,33.0,-100.00,SSW,202,5.0,7.0,33,-99.99,,,-99.99,,2013-06-09 16:03:00,
2013-06-09 10:13:00,66.0,35.0,-100.00,North,5,0.0,5.0,31,-99.99,,,-99.99,,2013-06-09 16:13:00,
2013-06-09 10:23:00,66.0,35.0,-100.00,SSW,206,4.0,5.0,32,-99.99,,,-99.99,,2013-06-09 16:23:00,
2013-06-09 10:33:00,66.0,35.0,-100.00,SSW,208,5.0,6.0,31,-99.99,,,-99.99,,2013-06-09 16:33:00,
2013-06-09 10:42:00,68.0,35.0,-100.00,SSW,199,5.0,6.0,29,-99.99,,,-99.99,,2013-06-09 16:42:00,
2013-06-09 10:52:00,69.0,35.0,-100.00,SSW,203,6.0,7.0,28,-99.99,,,-99.99,,2013-06-09 16:52:00,
2013-06-09 11:02:00,70.0,34.0,-100.00,SSW,200,4.0,6.0,26,-99.99,,,-99.99,,2013-06-09 17:02:00,
2013-06-09 11:12:00,70.0,36.0,-100.00,SSW,198,3.0,7.0,28,-99.99,,,-99.99,,2013-06-09 17:12:00,
2013-06-09 11:22:00,72.0,34.0,-100.00,SSW,209,7.0,9.0,25,-99.99,,,-99.99,,2013-06-09 17:22:00,
2013-06-09 11:32:00,73.0,30.0,-100.00,SSW,206,7.0,9.0,20,-99.99,,,-99.99,,2013-06-09 17:32:00,
2013-06-09 11:42:00,74.0,32.0,-100.00,SSW,205,7.0,10.0,21,-99.99,,,-99.99,,2013-06-09 17:42:00,
2013-06-09 11:52:00,74.0,29.0,-100.00,SW,220,7.0,9.0,19,-99.99,,,-99.99,,2013-06-09 17:52:00,
2013-06-09 12:02:00,75.0,29.0,-100.00,SSW,192,6.0,9.0,17,-99.99,,,-99.99,,2013-06-09 18:02:00,
2013-06-09 12:11:00,75.0,32.0,-100.00,SSW,202,9.0,14.0,20,-99.99,,,-99.99,,2013-06-09 18:11:00,
2013-06-09 12:21:00,75.0,28.0,-100.00,SSW,197,12.0,13.0,17,-99.99,,,-99.99,,2013-06-09 18:21:00,
2013-06-09 12:32:00,76.0,26.0,-100.00,SSW,200,10.0,15.0,15,-99.99,,,-99.99,,2013-06-09 18:32:00,
2013-06-09 12:42:00,77.0,30.0,-100.00,SSW,195,11.0,14.0,18,-99.99,,,-99.99,,2013-06-09 18:42:00,
2013-06-09 12:52:00,76.0,28.0,-100.00,SSW,192,12.0,14.0,16,-99.99,,,-99.99,,2013-06-09 18:52:00,
2013-06-09 13:02:00,76.0,28.0,-100.00,SSW,192,12.0,14.0,16,-99.99,,,-99.99,,2013-06-09 19:02:00,
2013-06-09 13:12:00,77.0,29.0,-100.00,West,259,10.0,12.0,17,-99.99,,,-99.99,,2013-06-09 19:12:00,
2013-06-09 13:21:00,78.0,29.0,-100.00,SW,225,7.0,14.0,16,-99.99,,,-99.99,,2013-06-09 19:21:00,
2013-06-09 13:32:00,79.0,32.0,-100.00,SW,219,8.0,12.0,18,-99.99,,,-99.99,,2013-06-09 19:32:00,
2013-06-09 13:42:00,77.0,28.0,-100.00,SSW,205,10.0,13.0,16,-99.99,,,-99.99,,2013-06-09 19:42:00,
2013-06-09 13:52:00,77.0,28.0,-100.00,SSW,196,6.0,12.0,16,-99.99,,,-99.99,,2013-06-09 19:52:00,
2013-06-09 14:02:00,80.0,29.0,-100.00,South,191,6.0,10.0,15,-99.99,,,-99.99,,2013-06-09 20:02:00,
2013-06-09 14:12:00,80.0,29.0,-100.00,SSW,204,7.0,11.0,15,-99.99,,,-99.99,,2013-06-09 20:12:00,
2013-06-09 14:22:00,78.0,29.0,-100.00,West,267,5.0,10.0,16,-99.99,,,-99.99,,2013-06-09 20:22:00,
2013-06-09 14:32:00,80.0,33.0,-100.00,SW,228,8.0,15.0,17,-99.99,,,-99.99,,2013-06-09 20:32:00,
2013-06-09 14:42:00,79.0,33.0,-100.00,West,276,6.0,13.0,18,-99.99,,,-99.99,,2013-06-09 20:42:00,
2013-06-09 14:52:00,80.0,30.0,-100.00,West,278,7.0,10.0,16,-99.99,,,-99.99,,2013-06-09 20:52:00,
2013-06-09 15:02:00,80.0,30.0,-100.00,WSW,246,4.0,8.0,16,-99.99,,,-99.99,,2013-06-09 21:02:00,
2013-06-09 15:12:00,82.0,31.0,-100.00,SSW,198,13.0,14.0,15,-99.99,,,-99.99,,2013-06-09 21:12:00,
2013-06-09 15:21:00,81.0,31.0,-100.00,WNW,294,6.0,12.0,16,-99.99,,,-99.99,,2013-06-09 21:21:00,
2013-06-09 15:33:00,81.0,31.0,-100.00,SSW,196,10.0,15.0,16,-99.99,,,-99.99,,2013-06-09 21:33:00,
2013-06-09 15:43:00,81.0,31.0,-100.00,SSE,152,5.0,12.0,16,-99.99,,,-99.99,,2013-06-09 21:43:00,
2013-06-09 15:53:00,80.0,33.0,-100.00,WNW,289,5.0,15.0,18,-99.99,,,-99.99,,2013-06-09 21:53:00,
2013-06-09 16:02:00,83.0,33.0,-100.00,South,190,7.0,14.0,16,-99.99,,,-99.99,,2013-06-09 22:02:00,
2013-06-09 16:12:00,82.0,31.0,-100.00,WSW,251,6.0,11.0,15,-99.99,,,-99.99,,2013-06-09 22:12:00,
2013-06-09 16:22:00,83.0,30.0,-100.00,South,177,3.0,11.0,14,-99.99,,,-99.99,,2013-06-09 22:22:00,
2013-06-09 16:33:00,83.0,30.0,-100.00,South,177,3.0,11.0,14,-99.99,,,-99.99,,2013-06-09 22:33:00,
2013-06-09 16:42:00,82.0,27.0,-100.00,West,263,5.0,10.0,13,-99.99,,,-99.99,,2013-06-09 22:42:00,
2013-06-09 16:52:00,82.0,27.0,-100.00,WNW,285,3.0,11.0,13,-99.99,,,-99.99,,2013-06-09 22:52:00,
2013-06-09 17:02:00,83.0,26.0,-100.00,South,190,10.0,12.0,12,-99.99,,,-99.99,,2013-06-09 23:02:00,
2013-06-09 17:12:00,84.0,25.0,-100.00,SSW,199,16.0,18.0,11,-99.99,,,-99.99,,2013-06-09 23:12:00,
2013-06-09 17:22:00,84.0,26.0,-100.00,SSW,202,18.0,23.0,12,-99.99,,,-99.99,,2013-06-09 23:22:00,
2013-06-09 17:32:00,83.0,26.0,-100.00,SSW,203,15.0,23.0,12,-99.99,,,-99.99,,2013-06-09 23:32:00,
2013-06-09 17:42:00,83.0,26.0,-100.00,SSW,192,15.0,20.0,12,-99.99,,,-99.99,,2013-06-09 23:42:00,
2013-06-09 17:52:00,84.0,28.0,-100.00,SW,216,6.0,19.0,13,-99.99,,,-99.99,,2013-06-09 23:52:00,
2013-06-09 18:02:00,83.0,26.0,-100.00,SSW,193,15.0,20.0,12,-99.99,,,-99.99,,2013-06-10 00:02:00,
2013-06-09 18:12:00,84.0,27.0,-100.00,South,185,11.0,21.0,12,-99.99,,,-99.99,,2013-06-10 00:12:00,
2013-06-09 18:21:00,84.0,26.0,-100.00,SSW,213,11.0,26.0,12,-99.99,,,-99.99,,2013-06-10 00:21:00,
2013-06-09 18:32:00,83.0,27.0,-100.00,SSW,207,14.0,18.0,12,-99.99,,,-99.99,,2013-06-10 00:32:00,
2013-06-09 18:42:00,83.0,26.0,-100.00,SSW,203,11.0,17.0,12,-99.99,,,-99.99,,2013-06-10 00:42:00,
2013-06-09 18:52:00,83.0,27.0,-100.00,SSW,213,13.0,17.0,13,-99.99,,,-99.99,,2013-06-10 00:52:00,
2013-06-09 19:02:00,83.0,26.0,-100.00,SSW,204,9.0,16.0,12,-99.99,,,-99.99,,2013-06-10 01:02:00,
2013-06-09 19:12:00,83.0,28.0,-100.00,SSW,208,9.0,14.0,13,-99.99,,,-99.99,,2013-06-10 01:12:00,
2013-06-09 19:22:00,83.0,25.0,-100.00,SSW,193,11.0,14.0,12,-99.99,,,-99.99,,2013-06-10 01:22:00,
2013-06-09 19:32:00,82.0,28.0,-100.00,WSW,238,6.0,11.0,13,-99.99,,,-99.99,,2013-06-10 01:32:00,
2013-06-09 19:42:00,81.0,31.0,-100.00,SSW,211,7.0,10.0,15,-99.99,,,-99.99,,2013-06-10 01:42:00,
2013-06-09 19:52:00,81.0,30.0,-100.00,SSW,199,7.0,11.0,15,-99.99,,,-99.99,,2013-06-10 01:52:00,
2013-06-09 20:02:00,80.0,31.0,-100.00,SSW,213,6.0,9.0,16,-99.99,,,-99.99,,2013-06-10 02:02:00,
2013-06-09 20:12:00,80.0,32.0,-100.00,SSW,207,6.0,8.0,17,-99.99,,,-99.99,,2013-06-10 02:12:00,
2013-06-09 20:22:00,79.0,29.0,-100.00,SSW,203,7.0,10.0,16,-99.99,,,-99.99,,2013-06-10 02:22:00,
2013-06-09 20:32:00,80.0,34.0,-100.00,SSW,201,2.0,6.0,18,-99.99,,,-99.99,,2013-06-10 02:32:00,
2013-06-09 20:42:00,75.0,37.0,-100.00,SW,223,2.0,5.0,25,-99.99,,,-99.99,,2013-06-10 02:42:00,
2013-06-09 20:52:00,70.0,36.0,-100.00,NNW,348,0.0,3.0,28,-99.99,,,-99.99,,2013-06-10 02:52:00,
2013-06-09 21:02:00,68.0,37.0,-100.00,NE,54,0.0,2.0,31,-99.99,,,-99.99,,2013-06-10 03:02:00,
2013-06-09 21:12:00,67.0,36.0,-100.00,NE,35,0.0,2.0,30,-99.99,,,-99.99,,2013-06-10 03:12:00,
2013-06-09 21:21:00,67.0,34.0,-100.00,NE,41,1.0,2.0,29,-99.99,,,-99.99,,2013-06-10 03:21:00,
2013-06-09 21:32:00,65.0,33.0,-100.00,NNE,21,2.0,3.0,29,-99.99,,,-99.99,,2013-06-10 03:32:00,
2013-06-09 21:43:00,64.0,32.0,-100.00,ENE,75,0.0,1.0,30,-99.99,,,-99.99,,2013-06-10 03:43:00,
2013-06-09 21:53:00,64.0,32.0,-100.00,NNE,22,4.0,4.0,30,-99.99,,,-99.99,,2013-06-10 03:53:00,
2013-06-09 22:03:00,64.0,32.0,-100.00,NE,51,3.0,4.0,29,-99.99,,,-99.99,,2013-06-10 04:03:00,
2013-06-09 22:12:00,62.0,31.0,-100.00,East,86,4.0,4.0,30,-99.99,,,-99.99,,2013-06-10 04:12:00,
2013-06-09 22:23:00,68.0,28.0,-100.00,East,86,9.0,9.0,22,-99.99,,,-99.99,,2013-06-10 04:23:00,
2013-06-09 22:33:00,70.0,29.0,-100.00,ENE,66,11.0,11.0,21,-99.99,,,-99.99,,2013-06-10 04:33:00,
2013-06-09 22:42:00,70.0,30.0,-100.00,ENE,61,12.0,13.0,22,-99.99,,,-99.99,,2013-06-10 04:42:00,
2013-06-09 22:52:00,68.0,30.0,-100.00,NE,56,13.0,13.0,23,-99.99,,,-99.99,,2013-06-10 04:52:00,
2013-06-09 23:02:00,69.0,29.0,-100.00,NE,53,15.0,15.0,23,-99.99,,,-99.99,,2013-06-10 05:02:00,
2013-06-09 23:12:00,68.0,30.0,-100.00,ENE,68,13.0,14.0,24,-99.99,,,-99.99,,2013-06-10 05:12:00,
2013-06-09 23:22:00,66.0,30.0,-100.00,ENE,64,11.0,14.0,25,-99.99,,,-99.99,,2013-06-10 05:22:00,
2013-06-09 23:32:00,66.0,30.0,-100.00,ENE,57,13.0,14.0,25,-99.99,,,-99.99,,2013-06-10 05:32:00,
2013-06-09 23:42:00,66.0,30.0,-100.00,ENE,58,13.0,14.0,25,-99.99,,,-99.99,,2013-06-10 05:42:00,
2013-06-09 23:52:00,67.0,30.0,-100.00,NE,54,13.0,15.0,25,-99.99,,,-99.99,,2013-06-10 05:52:00,